Forbes Road, Pennsylvania
Current Conditions -  °F | °C
As of 8:45 AM on Friday 28 Nov 2014 (Local Time) from KLBE Reporting Station
Light Snow Light Snow  
Wind Chill: 15°   Ceiling: 4400
Heat Index: 27°   Visibility: 6mi
Dew Point: 21°   Wind: 14mph
Humidity: 80%   Direction: 290°WNW
Pressure: 30.32"   Gusts: NA
Location:  40.35°N, 79.52°W
Report Text: KLBE 281345Z 29012KT 6SM -SN SCT016 OVC044 M03/M06 A3032
Loading
Personal Weather Stations






























Interactive Weather Map New forecast layout! Learn more

10-Day Weather Forecast

Advertisements
Track Severe Weather on mobile